Fairhaven, MA

11:45 PM EDT on April 17, 2015 (GMT -0400)
Fairhaven Center | | Change Station
CLOSE
Current Station
Personal Weather Station
Location: Fairhaven, MA
Elevation: 15 ft
Nearby Weather Stations
Active Advisory: Special Statement

Elev 15 ft 41.64 °N, 70.90 °W | Updated 38 seconds ago

Clear
Clear
53.6 °F
Feels Like 53.6 °F
N
0.0
Wind Variable Wind from West
Gusts 0.0 mph

Today
High -- | Low -- °F
--% Chance of Precip.
Yesterday
High -- | Low -- °F
Precip. -- in
6:00 AM 7:26 PM
Waning Crescent, 1% visible
Pressure 29.91 in
Visibility 4.0 miles
Clouds Clear
Dew Point 52 °F
Humidity 95%
Rainfall 0.27 in
Snow Depth Not available.
UV 0 out of 12
Pollen 8.00 out of 12
Air Quality Not available.
Flu Activity Widespread
SPECI KEWB 180301Z AUTO 25005KT 4SM BR CLR 12/11 A2991 RMK AO2 T01170106

More Conditions Fewer Conditions

Pressure 29.91 in
Visibility 4.0 miles
Clouds Clear
Dew Point 52 °F
Humidity 95%
Rainfall 0.27 in
Snow Depth Not available.
UV 0 out of 12
Pollen 8.00 out of 12
Air Quality Not available.
Flu Activity Widespread
SPECI KEWB 180301Z AUTO 25005KT 4SM BR CLR 12/11 A2991 RMK AO2 T01170106

More Conditions Fewer Conditions

10-Day Weather Forecast

Almanac

Astronomy

Apr. 17, 2015 Rise Set
Actual Time
Civil Twilight
Nautical Twilight
Astronomical Twilight
Moon
Length of Visible Light
Length of Day
Tomorrow will be .
, % of the Moon is Illuminated

Today's Extremes

State Highs State Lows

Community

WunderPhotos

Upload Photos

1,814,316 photos uploaded!

WunderBlogs® & News

Nearby

Air Quality

  Air Quality AQ Index Pollutant
Not available.

Snow Depth

Station Depth Elevation

Earthquake Activity

City Distance Mag. Time & Date
Minimum magnitude displayed is 2.5.

Coastal Water Temperatures

Place Temperature

Stations

Nearby Weather Stations

Station Location Temp. Windchill Dew Point Humidity Wind Precip. Elev Updated Type
                   
Special Statement
Statement as of 4:13 PM EDT on April 17, 2015

... Elevated fire weather potential across eastern Massachusetts
late Saturday afternoon and early evening...

Dry conditions will develop Saturday with relative humidities
dropping to near 30 percent by mid or late afternoon across
eastern Massachusetts. Seabreezes will keep relative humidities a
bit higher along the immediate coast. In addition... northwest
winds may gust up to 25 to 30 mph by late afternoon away from the
immediate coast resulting in elevated fire weather potential.

Local fire weather officials have advised of an elevated fire
spread potential.

A Fire Weather Watch is in effect Saturday afternoon for central
and western Massachusetts where there is a greater risk of
critical fire weather conditions.


Kjc